Time;durP1;ratioP1;P1;durP2;ratioP2;P2;SDS_P1;SDS_P2;PMS_P1;PMS_P2;Temp;Humidity;BMP_temperature;BMP_pressure;BME280_temperature;BME280_humidity;BME280_pressure;Samples;Min_cycle;Max_cycle;Signal;HPM_P1;HPM_P2
2022/06/15 00:01:49;;;;;;;12.27;9.73;;;;;;;16.58;nan;101732.28;5037805;28;20497;-73
2022/06/15 00:04:15;;;;;;;9.03;7.67;;;;;;;16.58;nan;101733.16;5038024;28;20202;-73
2022/06/15 00:06:41;;;;;;;12.00;9.93;;;;;;;16.72;nan;101735.78;5037726;28;20524;-73
2022/06/15 00:09:07;;;;;;;13.60;11.13;;;;;;;16.60;nan;101741.03;5038044;28;20174;-73
2022/06/15 00:11:38;;;;;;;14.00;12.43;;;;;;;16.44;nan;101741.03;5038386;28;20755;-73
2022/06/15 00:14:10;;;;;;;7.67;6.87;;;;;;;16.69;nan;101738.41;5037606;28;20424;-73
2022/06/15 00:16:35;;;;;;;11.70;9.70;;;;;;;16.87;nan;101728.75;5037686;28;20630;-72
2022/06/15 00:19:02;;;;;;;12.37;9.37;;;;;;;16.78;nan;101724.41;5037653;28;20458;-73
2022/06/15 00:21:28;;;;;;;12.47;9.60;;;;;;;17.09;nan;101722.63;5037777;28;20284;-73
2022/06/15 00:23:53;;;;;;;11.23;9.27;;;;;;;17.16;nan;101719.09;5037998;28;20394;-74
2022/06/15 00:26:18;;;;;;;12.70;9.30;;;;;;;16.79;nan;101726.13;5037509;28;20195;-73
2022/06/15 00:28:44;;;;;;;10.80;8.10;;;;;;;16.82;nan;101727.00;5037651;28;20174;-73
2022/06/15 00:31:09;;;;;;;11.40;9.97;;;;;;;16.61;nan;101727.88;5041990;28;20170;-73
2022/06/15 00:33:35;;;;;;;12.73;8.10;;;;;;;16.90;nan;101720.88;5041369;28;20536;-73
2022/06/15 00:36:07;;;;;;;12.73;7.50;;;;;;;16.81;nan;101725.25;5041505;28;20178;-74
2022/06/15 00:38:35;;;;;;;8.27;7.40;;;;;;;16.83;nan;101728.78;5041955;28;20566;-72
2022/06/15 00:41:03;;;;;;;10.60;9.17;;;;;;;16.90;nan;101736.69;5041218;28;20471;-74
2022/06/15 00:43:37;;;;;;;10.47;8.87;;;;;;;16.73;nan;101732.28;5041055;28;20482;-74
2022/06/15 00:46:29;;;;;;;10.40;9.30;;;;;;;16.81;nan;101735.78;5041229;28;20451;-74
2022/06/15 00:49:08;;;;;;;8.30;7.50;;;;;;;16.91;nan;101728.78;5039208;28;20479;-74
2022/06/15 00:51:34;;;;;;;13.30;9.20;;;;;;;16.89;nan;101727.03;5041264;28;20414;-74
2022/06/15 00:54:00;;;;;;;11.10;8.60;;;;;;;16.89;nan;101727.03;5040270;28;20399;-74
2022/06/15 00:56:27;;;;;;;8.73;7.67;;;;;;;16.69;nan;101722.63;5040320;28;20391;-73
2022/06/15 00:58:56;;;;;;;6.33;5.73;;;;;;;17.04;nan;101721.75;5040521;28;20162;-74
2022/06/15 01:01:21;;;;;;;8.47;6.00;;;;;;;17.13;nan;101715.56;5041305;28;20752;-74
2022/06/15 01:03:49;;;;;;;6.57;5.53;;;;;;;17.21;nan;101712.94;5040036;28;20400;-75
2022/06/15 01:06:24;;;;;;;8.47;7.03;;;;;;;17.17;nan;101710.31;5040955;28;20181;-74
2022/06/15 01:08:59;;;;;;;6.80;5.63;;;;;;;17.39;nan;101712.91;5040610;28;20416;-74
2022/06/15 01:11:56;;;;;;;8.10;5.87;;;;;;;17.39;nan;101717.31;5040112;28;20490;-75
2022/06/15 01:14:43;;;;;;;9.17;6.30;;;;;;;17.05;nan;101715.63;5033608;28;20398;-74
2022/06/15 01:17:23;;;;;;;6.00;4.93;;;;;;;16.90;nan;101715.63;5039993;28;20825;-74
2022/06/15 01:20:07;;;;;;;8.53;5.40;;;;;;;16.92;nan;101708.59;5040663;28;20475;-74
2022/06/15 01:22:59;;;;;;;8.43;7.17;;;;;;;17.00;nan;101714.75;5040488;28;20475;-73
2022/06/15 01:25:39;;;;;;;6.57;5.70;;;;;;;17.02;nan;101715.59;5039679;28;20444;-74
2022/06/15 01:28:24;;;;;;;10.97;8.00;;;;;;;16.95;nan;101716.50;5040266;28;20443;-75
2022/06/15 01:30:59;;;;;;;9.00;6.07;;;;;;;16.83;nan;101720.88;5040028;28;20395;-73
2022/06/15 01:33:30;;;;;;;6.57;5.70;;;;;;;16.82;nan;101715.63;5039740;28;20394;-75
2022/06/15 01:36:02;;;;;;;6.27;5.00;;;;;;;17.14;nan;101712.97;5040500;28;20395;-73
2022/06/15 01:38:38;;;;;;;11.63;6.03;;;;;;;16.92;nan;101721.78;5040265;28;20424;-73
2022/06/15 01:41:09;;;;;;;9.03;7.20;;;;;;;16.96;nan;101718.25;5038411;28;20553;-73
2022/06/15 01:43:43;;;;;;;6.60;5.77;;;;;;;16.97;nan;101722.66;5039968;28;20403;-74
2022/06/15 01:46:09;;;;;;;7.80;5.70;;;;;;;17.03;nan;101714.72;5040113;28;20679;-74
2022/06/15 01:48:36;;;;;;;8.60;5.10;;;;;;;17.19;nan;101710.31;5040093;28;20428;-74
2022/06/15 01:51:09;;;;;;;7.60;5.97;;;;;;;17.49;nan;101713.75;5040154;28;20255;-75
2022/06/15 01:53:37;;;;;;;9.13;6.57;;;;;;;17.04;nan;101716.50;5039403;28;20419;-75
2022/06/15 01:56:11;;;;;;;7.83;5.80;;;;;;;17.00;nan;101710.34;5039979;28;20421;-74
2022/06/15 01:58:39;;;;;;;8.23;6.30;;;;;;;17.08;nan;101709.47;5039300;28;20423;-75
2022/06/15 02:01:13;;;;;;;8.70;5.60;;;;;;;17.09;nan;101705.94;5039882;28;20794;-74
2022/06/15 02:03:45;;;;;;;10.10;6.70;;;;;;;17.16;nan;101710.31;5039676;28;20391;-74
2022/06/15 02:06:17;;;;;;;7.90;7.10;;;;;;;16.93;nan;101711.22;5039920;28;20474;-74
2022/06/15 02:08:59;;;;;;;7.13;6.03;;;;;;;16.92;nan;101709.47;5038851;28;20387;-74
2022/06/15 02:11:38;;;;;;;7.87;5.43;;;;;;;17.03;nan;101711.22;5038938;28;20406;-74
2022/06/15 02:14:10;;;;;;;8.10;6.20;;;;;;;16.97;nan;101712.13;5039344;28;20499;-74
2022/06/15 02:16:53;;;;;;;10.93;6.03;;;;;;;16.93;nan;101708.59;5039387;28;20451;-74
2022/06/15 02:19:21;;;;;;;9.53;7.13;;;;;;;16.92;nan;101701.56;5038626;28;20960;-73
2022/06/15 02:21:48;;;;;;;10.10;6.73;;;;;;;16.94;nan;101704.19;5038458;28;20464;-73
2022/06/15 02:24:14;;;;;;;8.63;7.20;;;;;;;16.98;nan;101705.94;5039205;28;20482;-73
2022/06/15 02:26:41;;;;;;;8.47;6.70;;;;;;;17.12;nan;101704.19;5039524;28;20408;-74
2022/06/15 02:29:15;;;;;;;11.57;7.30;;;;;;;16.81;nan;101703.31;5039233;28;20670;-73
2022/06/15 02:31:41;;;;;;;7.97;7.17;;;;;;;16.92;nan;101700.72;5038418;28;20816;-73
2022/06/15 02:34:07;;;;;;;7.83;5.40;;;;;;;16.97;nan;101704.22;5039257;28;20405;-74
2022/06/15 02:36:33;;;;;;;7.60;6.70;;;;;;;17.15;nan;101703.28;5039126;28;20383;-74
2022/06/15 02:39:00;;;;;;;11.27;6.07;;;;;;;17.12;nan;101701.53;5038964;28;20532;-72
2022/06/15 02:41:25;;;;;;;9.07;6.33;;;;;;;17.05;nan;101691.91;5039475;28;20420;-74
2022/06/15 02:43:53;;;;;;;11.57;6.87;;;;;;;16.90;nan;101692.81;5038800;28;20490;-73
2022/06/15 02:46:20;;;;;;;6.43;5.40;;;;;;;17.12;nan;101701.53;5038258;28;20256;-73
2022/06/15 02:48:46;;;;;;;7.33;5.27;;;;;;;17.02;nan;101694.53;5039376;28;20423;-74
2022/06/15 02:51:27;;;;;;;6.70;6.00;;;;;;;17.16;nan;101684.84;5038855;28;20468;-73
2022/06/15 02:53:55;;;;;;;10.33;8.13;;;;;;;17.02;nan;101686.63;5037814;28;20375;-72
2022/06/15 02:56:21;;;;;;;10.93;6.73;;;;;;;17.12;nan;101687.50;5038327;28;20512;-73
2022/06/15 02:58:49;;;;;;;8.83;6.70;;;;;;;17.01;nan;101684.88;5038359;28;20449;-74
2022/06/15 03:01:14;;;;;;;9.27;6.60;;;;;;;16.86;nan;101685.75;5038921;28;20817;-73
2022/06/15 03:03:40;;;;;;;7.37;6.07;;;;;;;16.83;nan;101680.47;5038508;28;20413;-73
2022/06/15 03:06:11;;;;;;;10.13;6.00;;;;;;;16.87;nan;101684.84;5038158;28;20596;-73
2022/06/15 03:08:36;;;;;;;9.20;6.47;;;;;;;16.81;nan;101688.38;5038898;28;20512;-74
2022/06/15 03:11:02;;;;;;;7.97;6.03;;;;;;;16.85;nan;101689.25;5038663;28;20500;-74
2022/06/15 03:13:27;;;;;;;7.67;5.60;;;;;;;16.84;nan;101688.41;5038363;28;20279;-74
2022/06/15 03:15:58;;;;;;;7.63;5.17;;;;;;;17.03;nan;101688.38;5038892;28;20205;-75
2022/06/15 03:18:23;;;;;;;7.20;5.60;;;;;;;17.10;nan;101694.53;5037640;28;20633;-74
2022/06/15 03:20:49;;;;;;;11.40;6.63;;;;;;;16.88;nan;101681.34;5038260;28;20702;-74
2022/06/15 03:23:14;;;;;;;9.20;5.90;;;;;;;17.27;nan;101690.09;5038566;28;20171;-74
2022/06/15 03:25:40;;;;;;;10.80;6.53;;;;;;;17.27;nan;101689.22;5038050;28;20455;-74
2022/06/15 03:28:05;;;;;;;8.43;5.70;;;;;;;16.95;nan;101680.50;5038239;28;20174;-73
2022/06/15 03:30:31;;;;;;;7.13;5.90;;;;;;;17.10;nan;101684.88;5038773;28;20162;-73
2022/06/15 03:32:56;;;;;;;6.17;5.57;;;;;;;17.04;nan;101684.00;5038049;28;20166;-74
2022/06/15 03:35:22;;;;;;;7.80;6.23;;;;;;;17.10;nan;101690.16;5038029;28;20178;-73
2022/06/15 03:37:49;;;;;;;7.23;5.90;;;;;;;16.91;nan;101689.28;5038697;28;20296;-74
2022/06/15 03:40:15;;;;;;;8.13;5.93;;;;;;;16.93;nan;101691.94;5038037;28;20443;-73
2022/06/15 03:42:40;;;;;;;8.00;6.20;;;;;;;16.84;nan;101682.25;5037850;28;20403;-73
2022/06/15 03:45:07;;;;;;;7.90;5.83;;;;;;;16.37;nan;101684.00;5038514;28;20196;-74
2022/06/15 03:47:33;;;;;;;8.93;6.30;;;;;;;17.26;nan;101684.81;5038053;28;20174;-73
2022/06/15 03:49:58;;;;;;;9.90;6.20;;;;;;;17.34;nan;101685.66;5038036;28;20439;-74
2022/06/15 03:52:26;;;;;;;9.20;6.43;;;;;;;17.34;nan;101681.25;5038113;28;20193;-74
2022/06/15 03:54:51;;;;;;;11.03;6.77;;;;;;;17.32;nan;101687.44;5037920;28;20253;-73
2022/06/15 03:57:18;;;;;;;7.13;6.40;;;;;;;17.21;nan;101682.22;5037105;28;20501;-73
2022/06/15 03:59:45;;;;;;;8.30;6.10;;;;;;;17.06;nan;101683.13;5037865;28;20272;-73
2022/06/15 04:02:11;;;;;;;8.20;6.23;;;;;;;17.35;nan;101679.53;5037842;28;20389;-74
2022/06/15 04:04:36;;;;;;;7.17;5.47;;;;;;;17.37;nan;101688.28;5039381;28;20508;-75
2022/06/15 04:07:03;;;;;;;7.27;5.60;;;;;;;17.55;nan;101676.81;5042290;28;20221;-75
2022/06/15 04:09:29;;;;;;;8.83;6.80;;;;;;;17.59;nan;101685.56;5041335;28;20174;-75
2022/06/15 04:11:58;;;;;;;7.00;6.30;;;;;;;17.69;nan;101679.38;5041765;28;20432;-74
2022/06/15 04:14:27;;;;;;;8.13;5.87;;;;;;;17.48;nan;101678.59;5041510;28;20155;-75
2022/06/15 04:16:56;;;;;;;9.90;6.13;;;;;;;17.87;nan;101682.81;5041832;28;20444;-74
2022/06/15 04:19:22;;;;;;;10.10;5.93;;;;;;;17.75;nan;101679.38;5040806;28;20464;-73
2022/06/15 04:21:48;;;;;;;10.03;6.40;;;;;;;16.83;nan;101685.75;5041969;28;20453;-74
2022/06/15 04:24:17;;;;;;;6.87;6.03;;;;;;;17.64;nan;101684.69;5041499;28;20773;-73
2022/06/15 04:26:44;;;;;;;9.80;5.90;;;;;;;17.58;nan;101675.94;5041522;28;20198;-73
2022/06/15 04:29:10;;;;;;;6.80;6.10;;;;;;;17.60;nan;101684.69;5041830;28;20471;-74
2022/06/15 04:31:37;;;;;;;5.70;5.20;;;;;;;16.87;nan;101686.63;5041453;28;20412;-73
2022/06/15 04:34:03;;;;;;;7.07;5.27;;;;;;;17.14;nan;101680.44;5041279;28;20479;-73
2022/06/15 04:36:29;;;;;;;8.00;5.50;;;;;;;17.26;nan;101675.16;5041930;28;20413;-73
2022/06/15 04:38:55;;;;;;;6.20;5.50;;;;;;;18.15;nan;101679.13;5040934;28;20186;-73
2022/06/15 04:41:20;;;;;;;7.03;5.40;;;;;;;17.60;nan;101671.50;5041105;28;20438;-74
2022/06/15 04:43:45;;;;;;;6.40;5.40;;;;;;;17.89;nan;101675.75;5040833;28;20166;-73
2022/06/15 04:46:11;;;;;;;6.87;5.60;;;;;;;18.60;nan;101672.63;5041249;28;20213;-74
2022/06/15 04:48:37;;;;;;;10.07;5.20;;;;;;;18.49;nan;101680.66;5041224;28;20174;-74
2022/06/15 04:51:14;;;;;;;7.47;5.80;;;;;;;18.54;nan;101680.59;5041620;28;20536;-74
2022/06/15 04:53:39;;;;;;;7.70;5.90;;;;;;;17.69;nan;101687.28;5041026;28;20174;-75
2022/06/15 04:56:05;;;;;;;9.00;5.67;;;;;;;18.31;nan;101687.81;5040980;28;20409;-74
2022/06/15 04:58:30;;;;;;;7.40;5.87;;;;;;;18.65;nan;101684.03;5040953;28;20261;-74
2022/06/15 05:00:56;;;;;;;9.00;5.73;;;;;;;20.08;nan;101673.59;5040902;28;20465;-75
2022/06/15 05:03:21;;;;;;;7.70;5.83;;;;;;;19.60;nan;101687.44;5041088;28;20252;-75
2022/06/15 05:05:46;;;;;;;9.80;5.40;;;;;;;19.44;nan;101676.16;5040736;28;20185;-75
2022/06/15 05:08:15;;;;;;;7.17;5.20;;;;;;;21.76;nan;101667.00;5040720;28;20570;-75
2022/06/15 05:10:41;;;;;;;5.80;5.20;;;;;;;21.32;nan;101672.31;5024147;28;20205;-75
2022/06/15 05:13:06;;;;;;;6.63;5.40;;;;;;;20.75;nan;101673.41;5041113;28;20826;-75
2022/06/15 05:15:32;;;;;;;12.47;5.00;;;;;;;22.14;nan;101675.84;5024591;28;20178;-75
2022/06/15 05:18:02;;;;;;;6.40;5.33;;;;;;;23.38;nan;101667.34;5025208;28;20221;-75
2022/06/15 05:20:28;;;;;;;8.10;5.67;;;;;;;22.85;nan;101665.25;5041348;28;20263;-76
2022/06/15 05:22:53;;;;;;;8.07;5.30;;;;;;;22.39;nan;101666.44;5040594;28;20420;-74
2022/06/15 05:25:20;;;;;;;8.30;5.90;;;;;;;23.76;nan;101660.00;5040346;28;20520;-74
2022/06/15 05:27:45;;;;;;;5.90;5.30;;;;;;;22.57;nan;101663.34;5040319;28;20277;-75
2022/06/15 05:30:11;;;;;;;8.77;5.80;;;;;;;21.66;nan;101670.75;5040737;28;20433;-74
2022/06/15 05:32:37;;;;;;;8.07;5.30;;;;;;;20.98;nan;101675.63;5039530;28;20236;-74
2022/06/15 05:35:02;;;;;;;8.00;4.97;;;;;;;21.39;nan;101678.34;5038951;28;20185;-74
2022/06/15 05:37:29;;;;;;;8.30;5.20;;;;;;;19.80;nan;101688.97;5040277;28;20177;-74
2022/06/15 05:39:54;;;;;;;9.43;5.50;;;;;;;20.34;nan;101682.91;5039368;28;20273;-73
2022/06/15 05:42:20;;;;;;;9.07;5.57;;;;;;;20.28;nan;101683.00;5040036;28;20503;-75
2022/06/15 05:47:11;;;;;;;8.27;5.87;;;;;;;21.07;nan;101685.19;5040266;28;20185;-75
2022/06/15 05:49:36;;;;;;;7.40;5.10;;;;;;;21.62;nan;101685.00;5040107;28;20199;-75
2022/06/15 05:52:02;;;;;;;12.30;5.77;;;;;;;21.24;nan;101683.97;5039804;28;20189;-76
2022/06/15 05:54:27;;;;;;;5.70;5.20;;;;;;;19.82;nan;101687.19;5039853;28;20170;-73
2022/06/15 05:56:53;;;;;;;6.60;4.37;;;;;;;21.14;nan;101686.81;5039984;28;20252;-73
2022/06/15 05:59:18;;;;;;;8.07;4.53;;;;;;;21.81;nan;101686.34;5040445;28;20389;-74
2022/06/15 06:01:44;;;;;;;7.83;4.90;;;;;;;23.68;nan;101673.56;5039297;28;20210;-74
2022/06/15 06:04:14;;;;;;;5.90;4.80;;;;;;;23.61;nan;101671.13;5039855;28;20189;-74
2022/06/15 06:06:40;;;;;;;6.83;4.73;;;;;;;23.31;nan;101684.41;5040276;28;20179;-74
2022/06/15 06:09:05;;;;;;;7.43;4.90;;;;;;;26.33;nan;101672.19;5039568;28;20443;-74
2022/06/15 06:11:30;;;;;;;5.90;4.93;;;;;;;26.49;nan;101677.75;5040804;28;20198;-74
2022/06/15 06:13:56;;;;;;;6.70;4.10;;;;;;;26.36;nan;101678.28;5039645;28;20182;-74
2022/06/15 06:16:21;;;;;;;8.33;4.23;;;;;;;26.74;nan;101666.91;5039450;28;20524;-74
2022/06/15 06:18:47;;;;;;;4.37;3.93;;;;;;;23.50;nan;101685.63;5038900;28;20226;-72
2022/06/15 06:21:12;;;;;;;7.17;4.63;;;;;;;22.80;nan;101684.00;5039814;28;20297;-72
2022/06/15 06:23:38;;;;;;;5.30;4.00;;;;;;;24.41;nan;101679.28;5039217;28;20202;-72
2022/06/15 06:26:04;;;;;;;4.73;3.80;;;;;;;23.42;nan;101684.09;5038960;28;20186;-73
2022/06/15 06:28:35;;;;;;;4.80;3.90;;;;;;;24.03;nan;101676.06;5038113;28;20568;-74
2022/06/15 06:31:03;;;;;;;5.20;4.00;;;;;;;25.19;nan;101681.03;5038205;28;20881;-71
2022/06/15 06:33:30;;;;;;;5.93;3.80;;;;;;;24.83;nan;101678.75;5039614;28;20433;-72
2022/06/15 06:35:57;;;;;;;6.63;4.50;;;;;;;26.05;nan;101679.56;5038239;28;20433;-73
2022/06/15 06:38:24;;;;;;;11.30;7.40;;;;;;;29.54;nan;101669.31;5034646;28;20440;-72
2022/06/15 06:40:53;;;;;;;8.43;4.10;;;;;;;27.68;nan;101675.19;5036221;28;20507;-72
2022/06/15 06:43:19;;;;;;;9.80;8.20;;;;;;;29.13;nan;101672.41;5036829;28;20440;-72
2022/06/15 06:45:44;;;;;;;5.57;4.10;;;;;;;27.86;nan;101678.78;5037196;28;20432;-73
2022/06/15 06:48:10;;;;;;;4.50;4.03;;;;;;;29.67;nan;101674.84;5037828;28;20185;-74
2022/06/15 06:50:38;;;;;;;9.50;7.10;;;;;;;29.63;nan;101674.16;5037643;28;20177;-73
2022/06/15 06:53:04;;;;;;;6.60;4.00;;;;;;;23.31;nan;101701.25;5037802;28;20178;-73
2022/06/15 06:55:30;;;;;;;5.23;4.10;;;;;;;25.99;nan;101697.59;5037177;28;20432;-74
2022/06/15 06:58:00;;;;;;;4.73;4.00;;;;;;;28.74;nan;101677.16;5039038;28;20189;-73
2022/06/15 07:00:26;;;;;;;5.43;4.20;;;;;;;24.96;nan;101694.31;5038094;28;20213;-73
2022/06/15 07:02:52;;;;;;;4.73;3.53;;;;;;;25.72;nan;101685.28;5038300;28;20428;-73
2022/06/15 07:05:17;;;;;;;10.40;7.07;;;;;;;26.98;nan;101688.16;5038721;28;20729;-72
2022/06/15 07:07:43;;;;;;;4.30;3.87;;;;;;;26.93;nan;101687.50;5038580;28;20257;-73
2022/06/15 07:10:09;;;;;;;5.80;3.93;;;;;;;28.23;nan;101683.22;5038400;28;20166;-73
2022/06/15 07:12:36;;;;;;;8.80;4.50;;;;;;;28.43;nan;101677.81;5038625;28;20221;-73
2022/06/15 07:15:03;;;;;;;5.20;4.27;;;;;;;28.96;nan;101686.75;5038371;28;20527;-72
2022/06/15 07:17:28;;;;;;;8.33;5.30;;;;;;;29.76;nan;101681.53;5037422;28;20432;-73
2022/06/15 07:19:53;;;;;;;11.00;4.27;;;;;;;28.49;nan;101686.41;5038154;28;20737;-74
2022/06/15 07:22:19;;;;;;;4.63;3.90;;;;;;;28.48;nan;101683.81;5037244;28;20229;-73
2022/06/15 07:24:45;;;;;;;6.40;4.10;;;;;;;29.51;nan;101678.41;5030625;28;20441;-70
2022/06/15 07:27:10;;;;;;;3.80;2.80;;;;;;;28.54;nan;101684.38;5037069;28;20185;-75
2022/06/15 07:29:36;;;;;;;4.83;3.70;;;;;;;27.07;nan;101695.78;5037324;28;20185;-75
2022/06/15 07:32:01;;;;;;;3.73;3.43;;;;;;;28.95;nan;101680.50;5037016;28;20224;-75
2022/06/15 07:34:27;;;;;;;6.10;3.83;;;;;;;27.41;nan;101688.94;5038117;28;20536;-74
2022/06/15 07:36:53;;;;;;;5.70;4.07;;;;;;;28.59;nan;101685.94;5037758;28;20185;-75
2022/06/15 07:39:21;;;;;;;6.63;3.70;;;;;;;29.37;nan;101680.97;5036788;28;20174;-76
2022/06/15 07:41:48;;;;;;;6.30;3.63;;;;;;;27.54;nan;101690.09;5037785;28;20213;-75
2022/06/15 07:44:15;;;;;;;4.90;3.90;;;;;;;26.02;nan;101695.72;5037468;28;20437;-76
2022/06/15 07:46:40;;;;;;;3.93;3.60;;;;;;;29.33;nan;101680.28;5038031;28;20421;-76
2022/06/15 07:51:56;;;;;;;4.87;3.40;;;;;;;28.17;nan;101683.56;5037705;28;20515;-77
2022/06/15 07:54:22;;;;;;;5.10;3.90;;;;;;;31.16;nan;101675.09;5038230;28;20444;-74
2022/06/15 07:56:49;;;;;;;7.47;3.70;;;;;;;31.52;nan;101677.28;5038042;28;20496;-75
2022/06/15 07:59:15;;;;;;;4.00;3.70;;;;;;;29.94;nan;101683.19;5037080;28;20433;-78
2022/06/15 08:01:42;;;;;;;6.70;3.60;;;;;;;28.11;nan;101686.53;5038050;28;20452;-78
2022/06/15 08:04:08;;;;;;;3.70;3.40;;;;;;;29.23;nan;101685.25;5037395;28;20455;-78
2022/06/15 08:06:35;;;;;;;4.97;4.47;;;;;;;30.65;nan;101680.88;5037695;28;20405;-79
2022/06/15 08:09:00;;;;;;;5.00;3.40;;;;;;;26.33;nan;101686.44;5037265;28;20478;-78
2022/06/15 08:11:26;;;;;;;4.83;3.70;;;;;;;28.18;nan;101679.91;5037582;28;20421;-73
2022/06/15 08:13:52;;;;;;;4.33;3.37;;;;;;;27.93;nan;101680.25;5037696;28;20170;-74
2022/06/15 08:16:19;;;;;;;4.83;3.30;;;;;;;28.08;nan;101675.97;5037715;28;20186;-75
2022/06/15 08:18:47;;;;;;;6.40;4.27;;;;;;;25.45;nan;101687.22;5037380;28;20222;-72
2022/06/15 08:21:17;;;;;;;4.30;3.80;;;;;;;26.21;nan;101685.13;5036434;28;20475;-75
2022/06/15 08:23:45;;;;;;;5.10;3.40;;;;;;;26.87;nan;101692.19;5037770;28;20449;-73
2022/06/15 08:26:17;;;;;;;7.30;3.87;;;;;;;25.08;nan;101693.00;5037198;28;20772;-74
2022/06/15 08:28:46;;;;;;;10.90;3.90;;;;;;;24.32;nan;101696.44;5037512;28;20734;-76
2022/06/15 08:31:12;;;;;;;4.30;3.90;;;;;;;23.69;nan;101693.03;5036692;28;20481;-76
2022/06/15 08:33:38;;;;;;;5.10;4.10;;;;;;;24.26;nan;101690.44;5036461;28;20427;-75
2022/06/15 08:36:04;;;;;;;7.83;3.90;;;;;;;23.51;nan;101690.00;5037512;28;20669;-75
2022/06/15 08:38:30;;;;;;;8.23;4.20;;;;;;;23.76;nan;101689.31;5036305;28;20251;-75
2022/06/15 08:41:05;;;;;;;5.90;3.97;;;;;;;24.10;nan;101685.59;5036940;28;20850;-75
2022/06/15 08:44:08;;;;;;;5.67;3.70;;;;;;;23.82;nan;101686.44;5036558;28;20239;-76
2022/06/15 08:46:55;;;;;;;5.20;4.37;;;;;;;23.76;nan;101680.41;5037083;28;20752;-74
2022/06/15 08:49:47;;;;;;;5.03;4.20;;;;;;;22.98;nan;101689.72;5037137;28;20409;-74
2022/06/15 08:52:41;;;;;;;5.37;4.00;;;;;;;22.91;nan;101690.78;5040218;28;20503;-75
2022/06/15 08:55:32;;;;;;;6.43;4.17;;;;;;;23.23;nan;101694.41;5039242;28;20435;-75
2022/06/15 08:58:04;;;;;;;5.03;3.83;;;;;;;23.46;nan;101689.31;5040332;28;20496;-75
2022/06/15 09:00:37;;;;;;;6.87;3.90;;;;;;;23.14;nan;101688.41;5040084;28;20456;-74
2022/06/15 09:03:33;;;;;;;5.33;4.00;;;;;;;24.25;nan;101678.00;5039896;28;20416;-74
2022/06/15 09:06:17;;;;;;;4.20;3.20;;;;;;;25.61;nan;101678.59;5038975;28;20775;-75
2022/06/15 09:09:16;;;;;;;5.53;3.57;;;;;;;27.96;nan;101669.34;5040571;28;20421;-76
2022/06/15 09:15:17;;;;;;;4.47;3.43;;;;;;;24.63;nan;101674.09;5040105;28;20853;-75
2022/06/15 09:17:43;;;;;;;4.40;3.70;;;;;;;23.91;nan;101676.44;5039380;28;20467;-74
2022/06/15 09:20:15;;;;;;;6.50;3.77;;;;;;;23.51;nan;101684.69;5040349;28;20461;-74
2022/06/15 09:22:56;;;;;;;4.30;3.90;;;;;;;23.50;nan;101677.66;5039422;28;20456;-75
2022/06/15 09:25:35;;;;;;;5.77;4.33;;;;;;;24.17;nan;101675.63;5039624;28;20416;-74
2022/06/15 09:28:23;;;;;;;6.17;4.00;;;;;;;24.49;nan;101673.66;5040368;28;20416;-73
2022/06/15 09:30:49;;;;;;;6.53;4.13;;;;;;;24.19;nan;101677.31;5040054;28;20405;-72
2022/06/15 09:33:22;;;;;;;5.00;4.33;;;;;;;24.09;nan;101675.88;5039426;28;20421;-74
2022/06/15 09:35:51;;;;;;;4.17;3.77;;;;;;;24.39;nan;101675.78;5039789;28;20197;-74
2022/06/15 09:38:17;;;;;;;4.63;4.03;;;;;;;27.52;nan;101658.97;5040167;28;20420;-75
2022/06/15 09:40:51;;;;;;;6.83;5.37;;;;;;;27.94;nan;101652.50;5039812;28;20866;-74
2022/06/15 09:43:20;;;;;;;4.00;3.60;;;;;;;26.30;nan;101659.81;5038960;28;20193;-75
2022/06/15 09:46:04;;;;;;;8.30;4.00;;;;;;;28.18;nan;101652.25;5039018;28;20479;-75
2022/06/15 09:48:58;;;;;;;6.93;3.70;;;;;;;26.87;nan;101662.78;5039640;28;20748;-75
2022/06/15 09:51:37;;;;;;;5.30;3.70;;;;;;;27.76;nan;101654.25;5039382;28;20421;-74
2022/06/15 09:54:11;;;;;;;5.50;4.00;;;;;;;28.43;nan;101653.66;5038933;28;20432;-76
2022/06/15 09:56:37;;;;;;;6.00;3.70;;;;;;;29.44;nan;101655.50;5038867;28;20428;-74
2022/06/15 09:59:09;;;;;;;4.33;3.53;;;;;;;28.36;nan;101655.78;5039543;28;20424;-75
2022/06/15 10:01:37;;;;;;;4.23;3.53;;;;;;;28.92;nan;101652.97;5037669;28;20233;-76
2022/06/15 10:04:04;;;;;;;10.53;5.77;;;;;;;31.13;nan;101641.16;5038334;28;20687;-75
2022/06/15 10:07:00;;;;;;;3.80;3.40;;;;;;;26.95;nan;101654.38;5039164;28;20523;-75
2022/06/15 10:09:28;;;;;;;5.27;4.67;;;;;;;27.44;nan;101655.78;5039245;28;20443;-74
2022/06/15 10:12:55;;;;;;;4.53;3.73;;;;;;;27.33;nan;101643.75;5038781;28;20421;-75
2022/06/15 10:14:42;;;;;;;4.03;3.70;;;;;;;26.71;nan;101650.97;5039378;28;20421;-74
2022/06/15 10:17:30;;;;;;;4.00;3.20;;;;;;;27.09;nan;101648.44;5039083;28;20431;-74
2022/06/15 10:19:56;;;;;;;4.10;3.70;;;;;;;29.59;nan;101634.97;5038213;28;20189;-74
2022/06/15 10:22:29;;;;;;;7.47;3.97;;;;;;;29.64;nan;101635.59;5038247;28;20835;-74
2022/06/15 10:24:56;;;;;;;6.57;3.80;;;;;;;29.93;nan;101633.09;5039082;28;20423;-75
2022/06/15 10:27:28;;;;;;;6.10;3.70;;;;;;;29.04;nan;101634.38;5038461;28;20424;-74
2022/06/15 10:30:02;;;;;;;4.90;4.33;;;;;;;27.41;nan;101643.41;5039283;28;20500;-74
2022/06/15 10:32:31;;;;;;;5.43;3.97;;;;;;;25.42;nan;101646.41;5038760;28;20420;-74
2022/06/15 10:35:18;;;;;;;4.50;3.83;;;;;;;25.07;nan;101646.75;5038997;28;20721;-73
2022/06/15 10:37:47;;;;;;;5.10;4.57;;;;;;;25.52;nan;101638.00;5038552;28;20693;-74
2022/06/15 10:40:31;;;;;;;7.93;4.30;;;;;;;24.99;nan;101641.72;5038436;28;20543;-73
2022/06/15 10:43:18;;;;;;;5.63;4.03;;;;;;;25.36;nan;101645.72;5037715;28;20674;-73
2022/06/15 10:45:53;;;;;;;5.50;3.73;;;;;;;26.21;nan;101645.06;5037802;28;20421;-73
2022/06/15 10:48:29;;;;;;;6.43;3.40;;;;;;;26.66;nan;101636.94;5039303;28;20408;-73
2022/06/15 10:51:10;;;;;;;4.70;4.03;;;;;;;25.85;nan;101637.56;5037815;28;20416;-73
2022/06/15 10:53:49;;;;;;;6.37;3.87;;;;;;;26.74;nan;101632.16;5020670;28;20424;-74
2022/06/15 11:02:29;;;;;;;3.70;3.40;;;;;;;28.64;nan;101616.84;5038172;28;20864;-74
2022/06/15 11:05:19;;;;;;;8.23;3.80;;;;;;;27.32;nan;101614.34;5038506;28;20512;-76
2022/06/15 11:07:45;;;;;;;4.50;3.70;;;;;;;27.85;nan;101613.59;5038256;28;20846;-75
2022/06/15 11:10:32;;;;;;;4.10;3.70;;;;;;;28.76;nan;101602.78;5037135;28;20508;-76
2022/06/15 11:13:06;;;;;;;5.07;4.33;;;;;;;28.68;nan;101600.50;5037924;28;20413;-75
2022/06/15 11:18:37;;;;;;;5.07;3.90;;;;;;;26.95;nan;101591.97;5039154;28;20452;-76
2022/06/15 11:21:13;;;;;;;5.63;4.13;;;;;;;25.71;nan;101605.22;5037992;28;20499;-75
2022/06/15 11:23:46;;;;;;;4.13;3.73;;;;;;;25.47;nan;101607.06;5037201;28;20467;-76
2022/06/15 11:29:36;;;;;;;5.00;4.13;;;;;;;26.25;nan;101599.47;5037298;28;20841;-77
2022/06/15 11:32:07;;;;;;;5.87;4.17;;;;;;;25.41;nan;101592.16;5037914;28;20424;-75
2022/06/15 11:34:36;;;;;;;4.37;4.00;;;;;;;25.19;nan;101597.41;5037079;28;20474;-76
2022/06/15 11:37:11;;;;;;;8.10;4.00;;;;;;;25.04;nan;101598.88;5037129;28;20424;-75
2022/06/15 11:39:42;;;;;;;6.00;4.17;;;;;;;24.93;nan;101590.41;5037857;28;20822;-75
2022/06/15 11:42:09;;;;;;;7.37;4.20;;;;;;;25.17;nan;101576.13;5036838;28;20712;-75
2022/06/15 11:44:36;;;;;;;4.03;3.50;;;;;;;25.11;nan;101573.69;5020207;28;20449;-75
2022/06/15 11:47:29;;;;;;;8.67;3.87;;;;;;;25.62;nan;101578.88;5037309;28;20482;-76
2022/06/15 11:50:12;;;;;;;16.67;5.60;;;;;;;24.49;nan;101578.59;5037012;28;20431;-76
2022/06/15 11:52:41;;;;;;;7.07;4.13;;;;;;;24.00;nan;101581.16;5036754;28;20845;-76
2022/06/15 11:55:15;;;;;;;5.20;4.43;;;;;;;21.99;nan;101593.94;5037593;28;20449;-76
2022/06/15 11:58:03;;;;;;;6.20;4.63;;;;;;;23.79;nan;101579.16;5037017;28;20420;-74
2022/06/15 12:00:38;;;;;;;8.00;4.50;;;;;;;25.53;nan;101574.78;5036227;28;20468;-74
2022/06/15 12:03:19;;;;;;;4.97;4.47;;;;;;;23.32;nan;101571.75;5036503;28;20436;-72
2022/06/15 12:05:50;;;;;;;4.67;4.17;;;;;;;23.56;nan;101572.78;5036753;28;20905;-73
2022/06/15 12:08:53;;;;;;;7.33;4.80;;;;;;;24.10;nan;101567.50;5036756;28;20451;-76
2022/06/15 12:14:27;;;;;;;4.80;4.27;;;;;;;24.99;nan;101574.16;5037289;28;20427;-76
2022/06/15 12:16:52;;;;;;;6.10;4.40;;;;;;;24.32;nan;101580.97;5036659;28;20519;-74
2022/06/15 12:19:21;;;;;;;5.27;4.77;;;;;;;24.53;nan;101572.22;5039343;28;20492;-77
2022/06/15 12:22:00;;;;;;;5.50;4.07;;;;;;;25.52;nan;101568.56;5038281;28;20206;-76